PORTS® Data Listing: 9075099 De Tour Village, MI

CO-OPS RAW PORTS DATA

************************      PRELIMINARY DATA      ************************** 

     THIS RAW DATA HAS NOT BEEN SUBJECT TO THE NATIONAL OCEAN SERVICE'S        
     QUALITY CONTROL OR QUALITY ASSURANCE PROCEDURES AND DOES NOT MEET         
     THE CRITERIA AND STANDARDS OF OFFICIAL NATIONAL OCEAN SERVICE             
     DATA.  IT IS RELEASED FOR LIMITED PUBLIC USE AS PRELIMINARY DATA TO       
     BE USED ONLY WITH APPROPRIATE CAUTION.                                    

************************      PRELIMINARY DATA      ************************** 


       CD   -   Calendar date
       T    -   Time
       TZ   -   Timezone
       SW   -   Observed secondary water level (inches IGLD 1985)
       PW   -   Observed primary water level (inches IGLD 1985)
       WS   -   Wind speed (knots)
       WD   -   Wind direction (degrees true)
       WG   -   Wind gust (knots)
       AT   -   Air temperature (degrees farenheit)
       WT   -   Water temperature (degrees farenheit)
       AP   -   Air pressure (millibars)
       SA   -   Salinty (PSU - Practical Salinity Units)
       SG   -   Specific gravity
       RH   -   Relative humidity
       AG   -   Air gap (feet)
       VI   -   Visibility (nautical miles)

       ** NOTE **
       A variable that has its data fields filled with "9"s, indicates that
       data was not collected for that sample period.
       **********


STATION NAME: De Tour Village (9075099)
****************************************************************************************************
    CD       T    TZ    SW     PW    WS   WD   WG    AT    WT    AP    SA    SG     RH    AG   VI
****************************************************************************************************
2019/12/09 23:54 EST   44.45  44.45   11  316   17  17.8  37.6  997.5 -9.9 -9.999  95.2 -99.99 -9.99
2019/12/10 00:00 EST   44.17  44.21   10  313   19  17.4  37.6  997.7 -9.9 -9.999  94.4 -99.99 -9.99
2019/12/10 00:06 EST   44.13  44.21    8  328   16  17.4  37.6  997.8 -9.9 -9.999  94.9 -99.99 -9.99
2019/12/10 00:12 EST   44.33  44.37    8  322   15  17.2  37.6  998.0 -9.9 -9.999  95.0 -99.99 -9.99
2019/12/10 00:18 EST   44.06  44.09    7  326   14  17.4  37.4  998.1 -9.9 -9.999  95.4 -99.99 -9.99
2019/12/10 00:24 EST   44.02  44.06    7  333   12  17.4  37.6  998.1 -9.9 -9.999  95.8 -99.99 -9.99
2019/12/10 00:30 EST   43.27  43.27    9  323   15  17.4  37.4  998.1 -9.9 -9.999  95.8 -99.99 -9.99
2019/12/10 00:36 EST   43.90  43.94    8  318   14  17.6  37.4  998.2 -9.9 -9.999  95.6 -99.99 -9.99
2019/12/10 00:42 EST   43.62  43.66    9  322   16  17.4  37.4  998.5 -9.9 -9.999  95.3 -99.99 -9.99
2019/12/10 00:48 EST   43.94  43.98    6  311   17  17.2  37.4  998.7 -9.9 -9.999  95.1 -99.99 -9.99
2019/12/10 00:54 EST   43.86  43.90    6  320   11  17.4  37.6  998.9 -9.9 -9.999  95.3 -99.99 -9.99
2019/12/10 01:00 EST   43.82  43.86    5  307   10  17.1  37.6  999.0 -9.9 -9.999  95.9 -99.99 -9.99
2019/12/10 01:06 EST   43.62  43.62    4  317    8  17.1  37.6  999.1 -9.9 -9.999  96.1 -99.99 -9.99
2019/12/10 01:12 EST   43.74  43.78    5  296   10  17.1  37.4  999.2 -9.9 -9.999  96.3 -99.99 -9.99
2019/12/10 01:18 EST   42.99  43.03    6  304   12  16.9  37.4  999.5 -9.9 -9.999  95.5 -99.99 -9.99
2019/12/10 01:24 EST   42.60  42.64    6  298   13  16.9  37.4  999.6 -9.9 -9.999  94.8 -99.99 -9.99
2019/12/10 01:30 EST   42.80  42.80    7  307   11  17.1  37.4  999.7 -9.9 -9.999  94.6 -99.99 -9.99
2019/12/10 01:36 EST   42.76  42.80    7  300   15  17.1  37.4  999.9 -9.9 -9.999  94.7 -99.99 -9.99
2019/12/10 01:42 EST   42.87  42.91    6  299   13  17.1  37.4 1000.2 -9.9 -9.999  94.6 -99.99 -9.99
2019/12/10 01:48 EST   42.99  43.03    8  303   17  17.1  37.4 1000.3 -9.9 -9.999  94.1 -99.99 -9.99
2019/12/10 01:54 EST   43.03  43.07    9  292   17  17.1  37.4 1000.5 -9.9 -9.999  93.5 -99.99 -9.99
2019/12/10 02:00 EST   43.27  43.31   11  303   16  17.1  37.4 1000.7 -9.9 -9.999  92.4 -99.99 -9.99
2019/12/10 02:06 EST   43.15  43.23   10  304   18  17.1  37.4 1001.0 -9.9 -9.999  91.0 -99.99 -9.99
2019/12/10 02:12 EST   42.83  42.87   14  288   22  16.7  37.4 1001.2 -9.9 -9.999  88.1 -99.99 -9.99
2019/12/10 02:18 EST   42.91  42.95    8  302   19  16.5  37.4 1001.4 -9.9 -9.999  88.5 -99.99 -9.99
2019/12/10 02:24 EST   42.83  42.87    7  302   17  16.5  37.4 1001.6 -9.9 -9.999  89.7 -99.99 -9.99
2019/12/10 02:30 EST   42.72  42.76   12  305   19  16.3  37.4 1001.8 -9.9 -9.999  89.6 -99.99 -9.99
2019/12/10 02:36 EST   42.83  42.87   11  297   18  16.2  37.4 1002.0 -9.9 -9.999  90.5 -99.99 -9.99
2019/12/10 02:42 EST   43.11  43.15   10  294   17  16.0  37.4 1002.2 -9.9 -9.999  90.7 -99.99 -9.99
2019/12/10 02:48 EST   42.91  42.91    9  294   14  15.8  37.4 1002.4 -9.9 -9.999  90.7 -99.99 -9.99
2019/12/10 02:54 EST   42.72  42.76    7  294   18  15.8  37.4 1002.4 -9.9 -9.999  89.5 -99.99 -9.99
2019/12/10 03:00 EST   43.03  43.07    5  298   10  15.4  37.4 1002.7 -9.9 -9.999  92.2 -99.99 -9.99
2019/12/10 03:06 EST   42.80  42.80    9  302   18  15.4  37.4 1002.9 -9.9 -9.999  89.6 -99.99 -9.99
2019/12/10 03:12 EST   42.83  42.87    9  278   18  15.3  37.4 1003.2 -9.9 -9.999  88.4 -99.99 -9.99
2019/12/10 03:18 EST   42.72  42.76    8  302   20  15.1  37.4 1003.3 -9.9 -9.999  87.7 -99.99 -9.99
2019/12/10 03:24 EST   42.64  42.64    9  314   14  15.1  37.4 1003.4 -9.9 -9.999  88.4 -99.99 -9.99
2019/12/10 03:30 EST   42.64  42.68    5  306   13  14.9  37.4 1003.4 -9.9 -9.999  91.1 -99.99 -9.99
2019/12/10 03:36 EST   42.60  42.64    7  309   13  14.7  37.4 1003.5 -9.9 -9.999  90.4 -99.99 -9.99
2019/12/10 03:42 EST   42.80  42.83   10  346   14  14.2  37.4 1003.6 -9.9 -9.999  92.9 -99.99 -9.99
2019/12/10 03:48 EST   42.83  42.87    5  306   13  13.6  37.4 1003.8 -9.9 -9.999  94.3 -99.99 -9.99
2019/12/10 03:54 EST   42.80  42.83    5  330   12  13.6  37.4 1003.9 -9.9 -9.999  95.2 -99.99 -9.99
2019/12/10 04:00 EST   42.76  42.80   10  317   15  13.5  37.4 1003.9 -9.9 -9.999  92.9 -99.99 -9.99
2019/12/10 04:06 EST   42.80  42.83   10  335   16  13.3  37.4 1003.8 -9.9 -9.999  93.1 -99.99 -9.99
2019/12/10 04:12 EST   42.95  42.99   13  347   17  12.2  37.4 1003.9 -9.9 -9.999  94.6 -99.99 -9.99
2019/12/10 04:18 EST   42.72  42.72   11  343   18  12.0  37.4 1004.1 -9.9 -9.999  94.8 -99.99 -9.99
2019/12/10 04:24 EST   43.11  43.15   10  338   15  11.5  37.4 1004.4 -9.9 -9.999  94.6 -99.99 -9.99
2019/12/10 04:30 EST   42.87  42.91    9  334   17  10.9  37.4 1004.6 -9.9 -9.999  93.8 -99.99 -9.99
2019/12/10 04:36 EST   43.07  43.11   12  342   18  10.6  37.4 1004.6 -9.9 -9.999  93.1 -99.99 -9.99
2019/12/10 04:42 EST   43.07  43.11   13  334   16   9.9  37.4 1004.9 -9.9 -9.999  92.9 -99.99 -9.99
2019/12/10 04:48 EST   43.31  43.35    9  336   18   9.5  37.4 1005.1 -9.9 -9.999  93.0 -99.99 -9.99
2019/12/10 04:54 EST   43.19  43.23    8  330   16   9.3  37.4 1005.2 -9.9 -9.999  92.8 -99.99 -9.99
2019/12/10 05:00 EST   43.66  43.70    9  322   17   9.1  37.4 1005.5 -9.9 -9.999  92.4 -99.99 -9.99
2019/12/10 05:06 EST   43.35  43.39    8  328   13   9.3  37.4 1005.6 -9.9 -9.999  92.3 -99.99 -9.99
2019/12/10 05:12 EST   43.78  43.82   11  337   14   8.8  37.4 1005.9 -9.9 -9.999  92.3 -99.99 -9.99
2019/12/10 05:18 EST   43.94  43.98   13  337   16   8.2  37.2 1006.2 -9.9 -9.999  93.3 -99.99 -9.99
2019/12/10 05:24 EST   43.94  44.02   10  336   15   8.1  37.2 1006.3 -9.9 -9.999  93.2 -99.99 -9.99
2019/12/10 05:30 EST   43.74  43.78    8  336   15   7.9  37.0 1006.6 -9.9 -9.999  94.2 -99.99 -9.99
2019/12/10 05:36 EST   44.21  44.25    7  325   13   7.5  36.9 1006.9 -9.9 -9.999  93.6 -99.99 -9.99
2019/12/10 05:42 EST   44.69  44.72    8  332   14   7.3  36.9 1007.0 -9.9 -9.999  93.5 -99.99 -9.99
2019/12/10 05:48 EST   44.72  44.76    9  330   13   7.3  37.0 1007.1 -9.9 -9.999  92.7 -99.99 -9.99
2019/12/10 05:54 EST   44.80  44.84   10  332   16   7.5  37.0 1007.3 -9.9 -9.999  92.5 -99.99 -9.99
2019/12/10 06:00 EST   45.04  45.08   10  337   14   7.5  37.0 1007.5 -9.9 -9.999  92.9 -99.99 -9.99
2019/12/10 06:06 EST   45.12  45.16   11  335   18   7.3  37.0 1007.6 -9.9 -9.999  94.0 -99.99 -9.99
2019/12/10 06:12 EST   45.31  45.35   11  335   16   6.8  37.0 1007.8 -9.9 -9.999  93.3 -99.99 -9.99
2019/12/10 06:18 EST   45.51  45.59   11  340   17   6.1  37.0 1007.9 -9.9 -9.999  93.3 -99.99 -9.99
2019/12/10 06:24 EST   45.31  45.35   13  333   18   5.4  37.0 1008.1 -9.9 -9.999  92.7 -99.99 -9.99
2019/12/10 06:30 EST   45.51  45.59   17  350   21   4.5  37.0 1008.3 -9.9 -9.999  91.8 -99.99 -9.99
2019/12/10 06:36 EST   45.55  45.67   15  345   19   3.9  37.0 1008.6 -9.9 -9.999  90.7 -99.99 -9.99
2019/12/10 06:42 EST   45.83  45.98   11  341   17   3.6  37.0 1008.9 -9.9 -9.999  88.3 -99.99 -9.99
2019/12/10 06:48 EST   46.02  46.30   14  348   18   3.9  36.9 1009.0 -9.9 -9.999  89.6 -99.99 -9.99
2019/12/10 06:54 EST   45.91  46.10   13  347   18   3.6  36.9 1009.5 -9.9 -9.999  90.6 -99.99 -9.99
2019/12/10 07:00 EST   45.91  46.10   10  335   17   2.8  36.9 1009.8 -9.9 -9.999  87.9 -99.99 -9.99
2019/12/10 07:06 EST   46.02  46.30   10  337   14   2.8  37.0 1010.0 -9.9 -9.999  85.0 -99.99 -9.99
2019/12/10 07:12 EST   45.94  46.18   13  348   16   2.8  37.0 1010.2 -9.9 -9.999  83.4 -99.99 -9.99
2019/12/10 07:18 EST   45.83  46.02   13    2   16   2.8  37.0 1010.4 -9.9 -9.999  80.9 -99.99 -9.99
2019/12/10 07:24 EST   45.87  46.02   12  353   16   3.4  36.9 1010.6 -9.9 -9.999  81.1 -99.99 -9.99
2019/12/10 07:30 EST   45.91  46.14   11  337   15   3.0  36.9 1010.7 -9.9 -9.999  74.7 -99.99 -9.99
2019/12/10 07:36 EST   45.91  46.10   10  336   15   2.7  36.9 1010.8 -9.9 -9.999  74.2 -99.99 -9.99
2019/12/10 07:42 EST   46.06  46.34   10  334   14   3.0  37.0 1011.0 -9.9 -9.999  75.8 -99.99 -9.99
2019/12/10 07:48 EST   46.10  46.38   10  342   13   2.8  36.9 1011.1 -9.9 -9.999  76.5 -99.99 -9.99
2019/12/10 07:54 EST   46.42  46.46   11  353   15   3.2  36.9 1011.2 -9.9 -9.999  77.9 -99.99 -9.99
2019/12/10 08:00 EST   46.50  46.57   11  343   14   2.7  36.9 1011.2 -9.9 -9.999  78.4 -99.99 -9.99
2019/12/10 08:06 EST   46.42  46.46   13  350   16   3.4  36.9 1011.3 -9.9 -9.999  79.5 -99.99 -9.99
2019/12/10 08:12 EST   46.42  46.46   12  353   15   2.8  36.9 1011.5 -9.9 -9.999  79.0 -99.99 -9.99
2019/12/10 08:18 EST   46.26  46.30   13  353   16   3.2  36.9 1011.6 -9.9 -9.999  78.5 -99.99 -9.99
2019/12/10 08:24 EST   45.91  45.94   12   12   16   3.4  36.9 1011.8 -9.9 -9.999  78.9 -99.99 -9.99
2019/12/10 08:30 EST   45.94  45.98   12   12   14   3.4  36.9 1011.8 -9.9 -9.999  78.4 -99.99 -9.99
2019/12/10 08:36 EST   46.10  46.18   12   10   16   3.7  36.9 1012.0 -9.9 -9.999  81.6 -99.99 -9.99
2019/12/10 08:42 EST   46.10  46.18   12   11   16   3.4  36.9 1012.1 -9.9 -9.999  83.4 -99.99 -9.99
2019/12/10 08:48 EST   46.38  46.46   12  352   14   3.6  37.0 1012.2 -9.9 -9.999  82.3 -99.99 -9.99
2019/12/10 08:54 EST   46.26  46.30   11   12   14   3.7  37.0 1012.3 -9.9 -9.999  81.3 -99.99 -9.99
2019/12/10 09:00 EST   45.94  45.98   11  351   14   3.4  36.9 1012.4 -9.9 -9.999  81.3 -99.99 -9.99
2019/12/10 09:06 EST   45.79  45.83   11  354   13   3.4  37.0 1012.5 -9.9 -9.999  82.1 -99.99 -9.99
2019/12/10 09:12 EST   45.83  45.87   11  354   14   3.4  37.0 1012.6 -9.9 -9.999  83.9 -99.99 -9.99
2019/12/10 09:18 EST   45.75  45.79   11  356   13   4.1  37.0 1012.8 -9.9 -9.999  86.1 -99.99 -9.99
2019/12/10 09:24 EST   45.67  45.75   10  349   13   3.9  37.0 1012.8 -9.9 -9.999  87.6 -99.99 -9.99
2019/12/10 09:30 EST   45.71  45.75   10  352   13   4.3  37.0 1012.8 -9.9 -9.999  88.6 -99.99 -9.99
2019/12/10 09:36 EST   45.79  45.83   10  352   14   4.3  37.0 1012.8 -9.9 -9.999  89.3 -99.99 -9.99
2019/12/10 09:42 EST   45.63  45.71   10  345   12   4.1  37.0 1012.9 -9.9 -9.999  89.5 -99.99 -9.99
2019/12/10 09:48 EST   46.02  46.06   10  342   12   3.7  37.0 1013.1 -9.9 -9.999  89.5 -99.99 -9.99
2019/12/10 09:54 EST   46.02  46.10   10  344   13   3.9  36.9 1013.0 -9.9 -9.999  90.0 -99.99 -9.99
2019/12/10 10:00 EST   45.63  45.67   10  351   13   4.3  36.9 1013.2 -9.9 -9.999  91.0 -99.99 -9.99
2019/12/10 10:06 EST   45.63  45.71    8  338   13   4.3  37.0 1013.5 -9.9 -9.999  90.4 -99.99 -9.99
2019/12/10 10:12 EST   45.79  45.83    8  336   11   4.5  37.0 1013.6 -9.9 -9.999  90.9 -99.99 -9.99
2019/12/10 10:18 EST   45.67  45.75    9  343   11   4.6  37.0 1013.7 -9.9 -9.999  90.9 -99.99 -9.99
2019/12/10 10:24 EST   45.98  46.06    9  346   12   4.5  37.0 1013.8 -9.9 -9.999  90.8 -99.99 -9.99
2019/12/10 10:30 EST   45.91  45.94   10  356   12   4.8  37.0 1013.7 -9.9 -9.999  91.2 -99.99 -9.99
2019/12/10 10:36 EST   45.67  45.75    9  352   12   5.5  37.0 1013.8 -9.9 -9.999  92.3 -99.99 -9.99
2019/12/10 10:42 EST   46.22  46.30   10  356   12   5.5  37.0 1013.9 -9.9 -9.999  92.2 -99.99 -9.99
2019/12/10 10:48 EST   46.50  46.54   10   14   12   5.9  37.0 1013.9 -9.9 -9.999  91.7 -99.99 -9.99
2019/12/10 10:54 EST   46.61  46.65   10   17   12   5.9  37.0 1013.9 -9.9 -9.999  89.8 -99.99 -9.99
2019/12/10 11:00 EST   46.50  46.57    9   17   11   5.9  37.0 1014.0 -9.9 -9.999  89.7 -99.99 -9.99
2019/12/10 11:06 EST   46.69  46.77    9    4   11   6.4  37.0 1014.1 -9.9 -9.999  89.7 -99.99 -9.99
2019/12/10 11:12 EST   46.57  46.61    8  355   10   6.3  37.0 1014.1 -9.9 -9.999  88.7 -99.99 -9.99
2019/12/10 11:18 EST   47.09  47.13    7  345   11   7.0  37.0 1014.2 -9.9 -9.999  88.6 -99.99 -9.99
2019/12/10 11:24 EST   46.93  47.01    7  355    9   7.0  37.0 1014.3 -9.9 -9.999  86.4 -99.99 -9.99
2019/12/10 11:30 EST   46.85  46.89    7  341    9   7.0  37.0 1014.3 -9.9 -9.999  85.2 -99.99 -9.99
2019/12/10 11:36 EST   47.05  47.09    6    1    9   7.3  37.0 1014.4 -9.9 -9.999  84.3 -99.99 -9.99
2019/12/10 11:42 EST   47.13  47.17    6  359    8   7.5  37.0 1014.4 -9.9 -9.999  82.3 -99.99 -9.99
2019/12/10 11:48 EST   47.48  47.52    6  330    9   7.3  37.0 1014.6 -9.9 -9.999  78.5 -99.99 -9.99
2019/12/10 11:54 EST   47.76  47.80    5  343    8   7.5  37.0 1014.6 -9.9 -9.999  78.2 -99.99 -9.99
2019/12/10 12:00 EST   47.91  47.95    4  336    7   7.7  37.0 1014.6 -9.9 -9.999  77.8 -99.99 -9.99
2019/12/10 12:06 EST   47.87  47.91    5  350    7   8.1  37.0 1014.6 -9.9 -9.999  76.9 -99.99 -9.99
2019/12/10 12:12 EST   47.83  47.87    6  335    7   7.9  36.9 1014.7 -9.9 -9.999  76.0 -99.99 -9.99
2019/12/10 12:18 EST   47.99  48.03    5  336    8   8.2  36.9 1014.7 -9.9 -9.999  75.2 -99.99 -9.99
2019/12/10 12:24 EST   47.83  47.91    4  346    8   8.1  36.9 1014.7 -9.9 -9.999  75.0 -99.99 -9.99
2019/12/10 12:30 EST   48.23  48.27    4  338    8   8.4  36.9 1014.7 -9.9 -9.999  75.9 -99.99 -9.99
2019/12/10 12:36 EST   48.31  48.35    6  341    8   9.0  37.0 1014.6 -9.9 -9.999  76.1 -99.99 -9.99
2019/12/10 12:42 EST   48.50  48.54    4  334    8   9.3  37.0 1014.7 -9.9 -9.999  77.4 -99.99 -9.99
2019/12/10 12:48 EST   48.54  48.62    3  319    9   9.9  37.0 1014.8 -9.9 -9.999  78.7 -99.99 -9.99
2019/12/10 12:54 EST   48.58  48.62    5  299    8   9.5  36.9 1014.9 -9.9 -9.999  77.0 -99.99 -9.99
2019/12/10 13:00 EST   48.43  48.46    3  320    5  10.2  36.9 1014.9 -9.9 -9.999  79.7 -99.99 -9.99
2019/12/10 13:06 EST   48.35  48.39    4  336    6  10.2  36.9 1014.8 -9.9 -9.999  78.1 -99.99 -9.99
2019/12/10 13:12 EST   48.70  48.78    4  338    7   9.7  36.9 1014.8 -9.9 -9.999  75.9 -99.99 -9.99
2019/12/10 13:18 EST   48.74  48.78    3  333    4  10.2  37.0 1014.9 -9.9 -9.999  77.0 -99.99 -9.99
2019/12/10 13:24 EST   49.09  49.13    4  295    5  10.9  36.9 1014.9 -9.9 -9.999  74.6 -99.99 -9.99
2019/12/10 13:30 EST   48.98  49.02    5  358    6  10.6  37.0 1015.0 -9.9 -9.999  73.8 -99.99 -9.99
2019/12/10 13:36 EST   48.94  48.98    3  348    5  10.9  37.0 1015.0 -9.9 -9.999  74.5 -99.99 -9.99
2019/12/10 13:42 EST   48.98  49.02    4  358    6  10.9  36.9 1015.0 -9.9 -9.999  74.5 -99.99 -9.99
2019/12/10 13:48 EST   48.90  48.94    5  332    7  10.9  36.9 1015.0 -9.9 -9.999  74.2 -99.99 -9.99
2019/12/10 13:54 EST   49.13  49.17    2  250    5  12.4  36.9 1015.0 -9.9 -9.999  75.5 -99.99 -9.99
2019/12/10 14:00 EST   49.17  49.21    3  353    6  11.7  36.9 1014.9 -9.9 -9.999  74.5 -99.99 -9.99
2019/12/10 14:06 EST   49.13  49.17    5  319    6  11.7  37.0 1014.9 -9.9 -9.999  72.9 -99.99 -9.99
2019/12/10 14:12 EST   49.37  49.41    4   10    7  11.7  37.0 1014.9 -9.9 -9.999  75.2 -99.99 -9.99
2019/12/10 14:18 EST   49.29  49.33    2  343    5  12.0  36.9 1014.8 -9.9 -9.999  76.0 -99.99 -9.99
2019/12/10 14:24 EST   49.29  49.33    3  342    5  12.2  36.9 1014.8 -9.9 -9.999  75.3 -99.99 -9.99
2019/12/10 14:30 EST   49.13  49.21    2  340    5  12.6  36.9 1014.8 -9.9 -9.999  75.7 -99.99 -9.99
2019/12/10 14:36 EST   49.29  49.33    3   23    4  12.2  37.0 1014.8 -9.9 -9.999  76.1 -99.99 -9.99
2019/12/10 14:42 EST   49.13  49.17    3   34    3  12.4  36.9 1014.8 -9.9 -9.999  76.6 -99.99 -9.99
2019/12/10 14:48 EST   49.06  49.09    1   38    3  12.6  36.9 1014.9 -9.9 -9.999  76.4 -99.99 -9.99
2019/12/10 14:54 EST   48.98  49.02    2   12    4  12.6  36.9 1014.9 -9.9 -9.999  76.1 -99.99 -9.99
2019/12/10 15:00 EST   48.82  48.86    3   47    4  12.6  36.9 1015.0 -9.9 -9.999  77.9 -99.99 -9.99
2019/12/10 15:06 EST   49.13  49.17    4   82    4  12.7  36.9 1015.0 -9.9 -9.999  78.3 -99.99 -9.99
2019/12/10 15:12 EST   49.02  49.06    3   29    4  12.7  36.9 1015.0 -9.9 -9.999  79.2 -99.99 -9.99
2019/12/10 15:18 EST   48.66  48.70    3   17    5  12.7  36.9 1015.2 -9.9 -9.999  77.8 -99.99 -9.99
2019/12/10 15:24 EST   48.62  48.66    2  338    4  12.9  36.9 1015.1 -9.9 -9.999  78.0 -99.99 -9.99
2019/12/10 15:30 EST   48.82  48.86    3   62    5  12.9  36.9 1015.1 -9.9 -9.999  78.4 -99.99 -9.99
2019/12/10 15:36 EST   48.50  48.54    2   58    4  13.1  36.9 1015.2 -9.9 -9.999  78.8 -99.99 -9.99
2019/12/10 15:42 EST   48.82  48.86    2  142    4  13.5  36.9 1015.3 -9.9 -9.999  78.3 -99.99 -9.99
2019/12/10 15:48 EST   48.82  48.86    1  101    3  13.3  36.9 1015.4 -9.9 -9.999  77.5 -99.99 -9.99
2019/12/10 15:54 EST   48.78  48.82    3  143    4  13.5  37.0 1015.5 -9.9 -9.999  77.5 -99.99 -9.99
2019/12/10 16:00 EST   48.58  48.62    4  133    5  13.6  37.0 1015.5 -9.9 -9.999  78.2 -99.99 -9.99
2019/12/10 16:06 EST   48.62  48.66    3  142    5  13.6  37.0 1015.6 -9.9 -9.999  78.4 -99.99 -9.99
2019/12/10 16:12 EST   48.46  48.50    4  141    6  14.0  37.0 1015.6 -9.9 -9.999  80.3 -99.99 -9.99
2019/12/10 16:18 EST   48.62  48.66    5  136    7  13.8  37.0 1015.6 -9.9 -9.999  81.2 -99.99 -9.99
2019/12/10 16:24 EST   49.21  49.25    5  121    7  13.8  36.9 1015.5 -9.9 -9.999  81.5 -99.99 -9.99
2019/12/10 16:30 EST   48.86  48.90    4  140    6  14.4  36.9 1015.6 -9.9 -9.999  82.4 -99.99 -9.99
2019/12/10 16:36 EST   49.02  49.06    4  132    5  14.4  37.0 1015.6 -9.9 -9.999  83.1 -99.99 -9.99
2019/12/10 16:42 EST   49.33  49.37    4  128    7  14.5  36.9 1015.6 -9.9 -9.999  83.3 -99.99 -9.99
2019/12/10 16:48 EST   49.41  49.45    6  124    7  14.4  37.0 1015.7 -9.9 -9.999  84.5 -99.99 -9.99
2019/12/10 16:54 EST   49.61  49.65    7  145    8  14.9  36.9 1015.7 -9.9 -9.999  84.1 -99.99 -9.99
2019/12/10 17:00 EST   49.53  49.57    5  137    8  15.1  37.0 1015.7 -9.9 -9.999  85.3 -99.99 -9.99
2019/12/10 17:06 EST   49.49  49.53    5  108    7  14.5  36.9 1015.6 -9.9 -9.999  84.4 -99.99 -9.99
2019/12/10 17:12 EST   49.72  49.80    6  107    7  14.7  36.9 1015.6 -9.9 -9.999  85.8 -99.99 -9.99
2019/12/10 17:18 EST   50.08  50.12    6  106    7  14.7  36.9 1015.7 -9.9 -9.999  87.4 -99.99 -9.99
2019/12/10 17:24 EST   50.12  50.16    6   99    8  14.4  36.9 1015.7 -9.9 -9.999  87.7 -99.99 -9.99
2019/12/10 17:30 EST   50.16  50.20    5  106    7  14.7  36.9 1015.7 -9.9 -9.999  89.5 -99.99 -9.99
2019/12/10 17:36 EST   50.35  50.39    7  103    8  14.0  36.9 1015.7 -9.9 -9.999  89.2 -99.99 -9.99
2019/12/10 17:42 EST   50.43  50.47    5  105    8  14.9  37.0 1015.8 -9.9 -9.999  91.8 -99.99 -9.99
2019/12/10 17:48 EST  -99.99 -99.99 -999 -999 -999 -99.9 -99.9 -999.9 -9.9 -9.999 -99.9 -99.99 -9.99
2019/12/10 17:54 EST  -99.99 -99.99 -999 -999 -999 -99.9 -99.9 -999.9 -9.9 -9.999 -99.9 -99.99 -9.99
2019/12/10 18:00 EST  -99.99 -99.99 -999 -999 -999 -99.9 -99.9 -999.9 -9.9 -9.999 -99.9 -99.99 -9.99
2019/12/10 18:06 EST  -99.99 -99.99 -999 -999 -999 -99.9 -99.9 -999.9 -9.9 -9.999 -99.9 -99.99 -9.99
2019/12/10 18:12 EST  -99.99 -99.99 -999 -999 -999 -99.9 -99.9 -999.9 -9.9 -9.999 -99.9 -99.99 -9.99
2019/12/10 18:18 EST  -99.99 -99.99 -999 -999 -999 -99.9 -99.9 -999.9 -9.9 -9.999 -99.9 -99.99 -9.99
2019/12/10 18:24 EST  -99.99 -99.99 -999 -999 -999 -99.9 -99.9 -999.9 -9.9 -9.999 -99.9 -99.99 -9.99
2019/12/10 18:30 EST  -99.99 -99.99 -999 -999 -999 -99.9 -99.9 -999.9 -9.9 -9.999 -99.9 -99.99 -9.99
2019/12/10 18:36 EST  -99.99 -99.99 -999 -999 -999 -99.9 -99.9 -999.9 -9.9 -9.999 -99.9 -99.99 -9.99
2019/12/10 18:42 EST  -99.99 -99.99 -999 -999 -999 -99.9 -99.9 -999.9 -9.9 -9.999 -99.9 -99.99 -9.99
2019/12/10 18:48 EST  -99.99 -99.99 -999 -999 -999 -99.9 -99.9 -999.9 -9.9 -9.999 -99.9 -99.99 -9.99
2019/12/10 18:54 EST  -99.99 -99.99 -999 -999 -999 -99.9 -99.9 -999.9 -9.9 -9.999 -99.9 -99.99 -9.99
2019/12/10 19:00 EST  -99.99 -99.99 -999 -999 -999 -99.9 -99.9 -999.9 -9.9 -9.999 -99.9 -99.99 -9.99
2019/12/10 19:06 EST  -99.99 -99.99 -999 -999 -999 -99.9 -99.9 -999.9 -9.9 -9.999 -99.9 -99.99 -9.99
2019/12/10 19:12 EST  -99.99 -99.99 -999 -999 -999 -99.9 -99.9 -999.9 -9.9 -9.999 -99.9 -99.99 -9.99
2019/12/10 19:18 EST  -99.99 -99.99 -999 -999 -999 -99.9 -99.9 -999.9 -9.9 -9.999 -99.9 -99.99 -9.99
2019/12/10 19:24 EST  -99.99 -99.99 -999 -999 -999 -99.9 -99.9 -999.9 -9.9 -9.999 -99.9 -99.99 -9.99
2019/12/10 19:30 EST  -99.99 -99.99 -999 -999 -999 -99.9 -99.9 -999.9 -9.9 -9.999 -99.9 -99.99 -9.99
2019/12/10 19:36 EST  -99.99 -99.99 -999 -999 -999 -99.9 -99.9 -999.9 -9.9 -9.999 -99.9 -99.99 -9.99
2019/12/10 19:42 EST  -99.99 -99.99 -999 -999 -999 -99.9 -99.9 -999.9 -9.9 -9.999 -99.9 -99.99 -9.99
2019/12/10 19:48 EST  -99.99 -99.99 -999 -999 -999 -99.9 -99.9 -999.9 -9.9 -9.999 -99.9 -99.99 -9.99
2019/12/10 19:54 EST  -99.99 -99.99 -999 -999 -999 -99.9 -99.9 -999.9 -9.9 -9.999 -99.9 -99.99 -9.99
2019/12/10 20:00 EST  -99.99 -99.99 -999 -999 -999 -99.9 -99.9 -999.9 -9.9 -9.999 -99.9 -99.99 -9.99
2019/12/10 20:06 EST  -99.99 -99.99 -999 -999 -999 -99.9 -99.9 -999.9 -9.9 -9.999 -99.9 -99.99 -9.99
2019/12/10 20:12 EST  -99.99 -99.99 -999 -999 -999 -99.9 -99.9 -999.9 -9.9 -9.999 -99.9 -99.99 -9.99
2019/12/10 20:18 EST  -99.99 -99.99 -999 -999 -999 -99.9 -99.9 -999.9 -9.9 -9.999 -99.9 -99.99 -9.99
2019/12/10 20:24 EST  -99.99 -99.99 -999 -999 -999 -99.9 -99.9 -999.9 -9.9 -9.999 -99.9 -99.99 -9.99
2019/12/10 20:30 EST  -99.99 -99.99 -999 -999 -999 -99.9 -99.9 -999.9 -9.9 -9.999 -99.9 -99.99 -9.99
2019/12/10 20:36 EST  -99.99 -99.99 -999 -999 -999 -99.9 -99.9 -999.9 -9.9 -9.999 -99.9 -99.99 -9.99
2019/12/10 20:42 EST  -99.99 -99.99 -999 -999 -999 -99.9 -99.9 -999.9 -9.9 -9.999 -99.9 -99.99 -9.99
2019/12/10 20:48 EST  -99.99 -99.99 -999 -999 -999 -99.9 -99.9 -999.9 -9.9 -9.999 -99.9 -99.99 -9.99
2019/12/10 20:54 EST  -99.99 -99.99 -999 -999 -999 -99.9 -99.9 -999.9 -9.9 -9.999 -99.9 -99.99 -9.99
2019/12/10 21:00 EST  -99.99 -99.99 -999 -999 -999 -99.9 -99.9 -999.9 -9.9 -9.999 -99.9 -99.99 -9.99
2019/12/10 21:06 EST  -99.99 -99.99 -999 -999 -999 -99.9 -99.9 -999.9 -9.9 -9.999 -99.9 -99.99 -9.99
2019/12/10 21:12 EST  -99.99 -99.99 -999 -999 -999 -99.9 -99.9 -999.9 -9.9 -9.999 -99.9 -99.99 -9.99
2019/12/10 21:18 EST  -99.99 -99.99 -999 -999 -999 -99.9 -99.9 -999.9 -9.9 -9.999 -99.9 -99.99 -9.99
2019/12/10 21:24 EST  -99.99 -99.99 -999 -999 -999 -99.9 -99.9 -999.9 -9.9 -9.999 -99.9 -99.99 -9.99
2019/12/10 21:30 EST  -99.99 -99.99 -999 -999 -999 -99.9 -99.9 -999.9 -9.9 -9.999 -99.9 -99.99 -9.99
2019/12/10 21:36 EST  -99.99 -99.99 -999 -999 -999 -99.9 -99.9 -999.9 -9.9 -9.999 -99.9 -99.99 -9.99
2019/12/10 21:42 EST  -99.99 -99.99 -999 -999 -999 -99.9 -99.9 -999.9 -9.9 -9.999 -99.9 -99.99 -9.99
2019/12/10 21:48 EST  -99.99 -99.99 -999 -999 -999 -99.9 -99.9 -999.9 -9.9 -9.999 -99.9 -99.99 -9.99
2019/12/10 21:54 EST  -99.99 -99.99 -999 -999 -999 -99.9 -99.9 -999.9 -9.9 -9.999 -99.9 -99.99 -9.99
2019/12/10 22:00 EST  -99.99 -99.99 -999 -999 -999 -99.9 -99.9 -999.9 -9.9 -9.999 -99.9 -99.99 -9.99
2019/12/10 22:06 EST  -99.99 -99.99 -999 -999 -999 -99.9 -99.9 -999.9 -9.9 -9.999 -99.9 -99.99 -9.99
2019/12/10 22:12 EST  -99.99 -99.99 -999 -999 -999 -99.9 -99.9 -999.9 -9.9 -9.999 -99.9 -99.99 -9.99
2019/12/10 22:18 EST  -99.99 -99.99 -999 -999 -999 -99.9 -99.9 -999.9 -9.9 -9.999 -99.9 -99.99 -9.99
2019/12/10 22:24 EST  -99.99 -99.99 -999 -999 -999 -99.9 -99.9 -999.9 -9.9 -9.999 -99.9 -99.99 -9.99
2019/12/10 22:30 EST  -99.99 -99.99 -999 -999 -999 -99.9 -99.9 -999.9 -9.9 -9.999 -99.9 -99.99 -9.99
2019/12/10 22:36 EST  -99.99 -99.99 -999 -999 -999 -99.9 -99.9 -999.9 -9.9 -9.999 -99.9 -99.99 -9.99
2019/12/10 22:42 EST  -99.99 -99.99 -999 -999 -999 -99.9 -99.9 -999.9 -9.9 -9.999 -99.9 -99.99 -9.99
2019/12/10 22:48 EST  -99.99 -99.99 -999 -999 -999 -99.9 -99.9 -999.9 -9.9 -9.999 -99.9 -99.99 -9.99
2019/12/10 22:54 EST  -99.99 -99.99 -999 -999 -999 -99.9 -99.9 -999.9 -9.9 -9.999 -99.9 -99.99 -9.99
2019/12/10 23:00 EST  -99.99 -99.99 -999 -999 -999 -99.9 -99.9 -999.9 -9.9 -9.999 -99.9 -99.99 -9.99
2019/12/10 23:06 EST  -99.99 -99.99 -999 -999 -999 -99.9 -99.9 -999.9 -9.9 -9.999 -99.9 -99.99 -9.99
2019/12/10 23:12 EST  -99.99 -99.99 -999 -999 -999 -99.9 -99.9 -999.9 -9.9 -9.999 -99.9 -99.99 -9.99
2019/12/10 23:18 EST  -99.99 -99.99 -999 -999 -999 -99.9 -99.9 -999.9 -9.9 -9.999 -99.9 -99.99 -9.99
2019/12/10 23:24 EST  -99.99 -99.99 -999 -999 -999 -99.9 -99.9 -999.9 -9.9 -9.999 -99.9 -99.99 -9.99
2019/12/10 23:30 EST  -99.99 -99.99 -999 -999 -999 -99.9 -99.9 -999.9 -9.9 -9.999 -99.9 -99.99 -9.99
2019/12/10 23:36 EST  -99.99 -99.99 -999 -999 -999 -99.9 -99.9 -999.9 -9.9 -9.999 -99.9 -99.99 -9.99
2019/12/10 23:42 EST  -99.99 -99.99 -999 -999 -999 -99.9 -99.9 -999.9 -9.9 -9.999 -99.9 -99.99 -9.99
2019/12/10 23:48 EST  -99.99 -99.99 -999 -999 -999 -99.9 -99.9 -999.9 -9.9 -9.999 -99.9 -99.99 -9.99
2019/12/10 23:54 EST  -99.99 -99.99 -999 -999 -999 -99.9 -99.9 -999.9 -9.9 -9.999 -99.9 -99.99 -9.99